createdAt,value
2018-05-23T00:00:00.900Z,2.5
2018-05-23T00:03:00.856Z,2.5
2018-05-23T00:06:00.897Z,2.6
2018-05-23T00:09:00.794Z,2.6
2018-05-23T00:12:01.006Z,2.5
2018-05-23T00:15:00.828Z,2.5
2018-05-23T00:18:01.048Z,2.5
2018-05-23T00:21:00.863Z,2.5
2018-05-23T00:24:00.977Z,2.5
2018-05-23T00:27:00.784Z,2.6
2018-05-23T00:30:01.031Z,2.7
2018-05-23T00:33:00.708Z,2.9
2018-05-23T00:36:00.756Z,3.1
2018-05-23T00:39:00.714Z,2.7
2018-05-23T00:42:00.785Z,2.6
2018-05-23T00:45:00.858Z,2.5
2018-05-23T00:48:00.789Z,2.5
2018-05-23T00:51:00.966Z,2.5
2018-05-23T00:54:00.854Z,2.8
2018-05-23T00:57:00.862Z,2.6
2018-05-23T01:00:00.893Z,2.4
2018-05-23T01:03:00.624Z,2.5
2018-05-23T01:06:00.897Z,2.5
2018-05-23T01:09:00.849Z,2.6
2018-05-23T01:12:00.766Z,2.5
2018-05-23T01:15:00.879Z,2.5
2018-05-23T01:18:00.800Z,2.4
2018-05-23T01:21:00.780Z,2.4
2018-05-23T01:24:00.906Z,2.4
2018-05-23T01:27:00.936Z,2.3
2018-05-23T01:30:00.881Z,2.5
2018-05-23T01:33:00.971Z,2.4
2018-05-23T01:36:00.944Z,2.5
2018-05-23T01:39:00.921Z,2.4
2018-05-23T01:42:00.785Z,2.4
2018-05-23T01:45:00.657Z,2.5
2018-05-23T01:48:01.031Z,2.5
2018-05-23T01:51:00.702Z,2.7
2018-05-23T01:54:00.712Z,2.9
2018-05-23T01:57:00.784Z,2.6
2018-05-23T02:00:00.945Z,2.5
2018-05-23T02:03:00.697Z,2.6
2018-05-23T02:06:01.078Z,2.6
2018-05-23T02:09:00.703Z,2.6
2018-05-23T02:12:00.719Z,2.6
2018-05-23T02:15:01.064Z,2.6
2018-05-23T02:18:00.873Z,2.5
2018-05-23T02:21:00.694Z,2.4
2018-05-23T02:24:00.824Z,2.4
2018-05-23T02:27:00.872Z,2.4
2018-05-23T02:30:00.727Z,2.4
2018-05-23T02:33:00.996Z,2.5
2018-05-23T02:36:00.801Z,2.5
2018-05-23T02:39:00.845Z,2.4
2018-05-23T02:42:00.831Z,2.4
2018-05-23T02:45:00.872Z,2.3
2018-05-23T02:48:00.744Z,2.4
2018-05-23T02:51:00.718Z,2.4
2018-05-23T02:54:00.787Z,2.3
2018-05-23T02:57:00.732Z,2.3
2018-05-23T03:00:00.721Z,2.3
2018-05-23T03:03:01.973Z,2.4
2018-05-23T03:06:00.683Z,2.5
2018-05-23T03:09:00.814Z,2.5
2018-05-23T03:12:00.934Z,2.4
2018-05-23T03:15:00.697Z,2.4
2018-05-23T03:18:00.853Z,2.4
2018-05-23T03:21:00.771Z,2.2
2018-05-23T03:24:00.661Z,2.3
2018-05-23T03:27:00.822Z,2.2
2018-05-23T03:30:00.806Z,2.3
2018-05-23T03:33:00.677Z,2.4
2018-05-23T03:36:00.877Z,2.3
2018-05-23T03:39:00.949Z,2.3
2018-05-23T03:42:00.750Z,2.3
2018-05-23T03:45:00.808Z,2.3
2018-05-23T03:48:00.876Z,2.3
2018-05-23T03:51:10.686Z,2.3
2018-05-23T03:54:00.826Z,2.3
2018-05-23T03:57:00.689Z,2.2
2018-05-23T04:00:00.760Z,2.3
2018-05-23T04:03:00.616Z,2.2
2018-05-23T04:06:00.871Z,2.3
2018-05-23T04:09:00.696Z,2.3
2018-05-23T04:12:00.642Z,2.2
2018-05-23T04:15:00.731Z,2.3
2018-05-23T04:18:00.730Z,2.3
2018-05-23T04:21:10.662Z,2.3
2018-05-23T04:24:01.198Z,2.4
2018-05-23T04:27:00.804Z,2.3
2018-05-23T04:30:00.838Z,2.2
2018-05-23T04:33:00.743Z,2.3
2018-05-23T04:36:00.758Z,2.3
2018-05-23T04:39:00.820Z,2.3
2018-05-23T04:42:00.701Z,2.4
2018-05-23T04:45:00.691Z,2.4
2018-05-23T04:48:00.707Z,2.3
2018-05-23T04:51:00.613Z,2.2
2018-05-23T04:54:00.882Z,2.3
2018-05-23T04:57:00.871Z,2.3
2018-05-23T05:00:00.860Z,2.3
2018-05-23T05:03:00.881Z,2.2
2018-05-23T05:06:00.811Z,2.2
2018-05-23T05:09:00.619Z,2.2
2018-05-23T05:12:00.821Z,2.3
2018-05-23T05:15:00.891Z,2.3
2018-05-23T05:18:00.677Z,2.3
2018-05-23T05:21:00.872Z,2.3
2018-05-23T05:24:00.828Z,2.2
2018-05-23T05:27:00.615Z,2.3
2018-05-23T05:30:00.683Z,2.4
2018-05-23T05:33:00.881Z,2.3
2018-05-23T05:36:00.624Z,2.4
2018-05-23T05:39:00.798Z,2.3
2018-05-23T05:42:00.714Z,2.3
2018-05-23T05:45:00.551Z,2.3
2018-05-23T05:48:00.682Z,2.3
2018-05-23T05:51:00.621Z,2.4
2018-05-23T05:54:00.588Z,2.3
2018-05-23T05:57:00.753Z,2.3
2018-05-23T06:00:00.909Z,2.3
2018-05-23T06:03:00.636Z,2.4
2018-05-23T06:06:00.905Z,2.4
2018-05-23T06:09:00.670Z,2.4
2018-05-23T06:12:00.770Z,2.2
2018-05-23T06:15:00.666Z,2.3
2018-05-23T06:18:00.721Z,2.4
2018-05-23T06:21:00.607Z,2.3
2018-05-23T06:24:00.678Z,2.2
2018-05-23T06:27:00.842Z,2.3
2018-05-23T06:30:00.548Z,2.3
2018-05-23T06:33:00.749Z,2.4
2018-05-23T06:36:00.669Z,2.3
2018-05-23T06:39:00.553Z,2.5
2018-05-23T06:42:00.781Z,2.4
2018-05-23T06:45:00.963Z,2.4
2018-05-23T06:48:00.603Z,2.4
2018-05-23T06:51:00.723Z,2.4
2018-05-23T06:54:00.633Z,2.4
2018-05-23T06:57:00.652Z,3.7
2018-05-23T07:00:00.861Z,3.8
2018-05-23T07:03:00.813Z,3.3
2018-05-23T07:06:00.615Z,3.1
2018-05-23T07:09:00.596Z,3
2018-05-23T07:12:00.743Z,2.7
2018-05-23T07:15:00.629Z,2.6
2018-05-23T07:18:02.293Z,2.5
2018-05-23T07:21:00.786Z,2.5
2018-05-23T07:24:01.081Z,2.9
2018-05-23T07:27:00.944Z,2.7
2018-05-23T07:30:00.682Z,2.6
2018-05-23T07:33:00.636Z,2.5
2018-05-23T07:36:00.765Z,2.9
2018-05-23T07:39:00.884Z,2.7
2018-05-23T07:42:00.613Z,2.7
2018-05-23T07:45:00.854Z,2.6
2018-05-23T07:48:00.711Z,2.8
2018-05-23T07:51:00.658Z,2.8
2018-05-23T07:54:00.786Z,2.7
2018-05-23T07:57:00.778Z,2.6
2018-05-23T08:00:00.540Z,3.2
2018-05-23T08:03:00.765Z,3
2018-05-23T08:06:00.628Z,2.7
2018-05-23T08:09:00.590Z,2.6
2018-05-23T08:12:00.707Z,2.5
2018-05-23T08:15:00.699Z,2.6
2018-05-23T08:18:00.557Z,3.4
2018-05-23T08:21:00.638Z,2.9
2018-05-23T08:24:00.947Z,2.9
2018-05-23T08:27:00.544Z,2.9
2018-05-23T08:30:00.603Z,2.8
2018-05-23T08:33:00.647Z,2.7
2018-05-23T08:36:00.569Z,2.8
2018-05-23T08:39:00.956Z,2.6
2018-05-23T08:42:00.723Z,2.5
2018-05-23T08:45:00.721Z,2.6
2018-05-23T08:48:00.760Z,2.6
2018-05-23T08:51:00.785Z,2.6
2018-05-23T08:54:00.978Z,2.6
2018-05-23T08:57:00.689Z,2.6
2018-05-23T09:00:00.624Z,2.6
2018-05-23T09:03:00.712Z,2.6
2018-05-23T09:06:00.754Z,2.6
2018-05-23T09:09:00.632Z,2.5
2018-05-23T09:12:00.638Z,2.6
2018-05-23T09:15:00.643Z,2.9
2018-05-23T09:18:00.538Z,2.8
2018-05-23T09:21:00.590Z,2.6
2018-05-23T09:24:00.635Z,2.7
2018-05-23T09:27:00.741Z,2.8
2018-05-23T09:30:00.817Z,3.1
2018-05-23T09:33:00.656Z,2.9
2018-05-23T09:36:00.836Z,2.6
2018-05-23T09:39:00.594Z,3
2018-05-23T09:42:00.756Z,2.8
2018-05-23T09:45:00.966Z,2.7
2018-05-23T09:48:00.756Z,2.6
2018-05-23T09:51:00.634Z,2.5
2018-05-23T09:54:00.917Z,2.5
2018-05-23T09:57:00.678Z,2.6
2018-05-23T10:00:00.721Z,2.5
2018-05-23T10:03:00.818Z,2.5
2018-05-23T10:06:00.851Z,2.4
2018-05-23T10:09:00.572Z,2.4
2018-05-23T10:12:00.657Z,2.5
2018-05-23T10:15:00.668Z,2.4
2018-05-23T10:18:00.613Z,2.5
2018-05-23T10:21:00.583Z,2.5
2018-05-23T10:24:00.873Z,2.5
2018-05-23T10:27:00.748Z,2.6
2018-05-23T10:30:00.652Z,2.6
2018-05-23T10:33:00.621Z,2.8
2018-05-23T10:36:00.844Z,2.7
2018-05-23T10:39:01.513Z,2.6
2018-05-23T10:42:00.718Z,2.6
2018-05-23T10:45:00.719Z,2.5
2018-05-23T10:48:00.581Z,2.4
2018-05-23T10:51:00.639Z,2.4
2018-05-23T10:54:00.553Z,2.5
2018-05-23T10:57:01.065Z,2.5
2018-05-23T11:00:00.733Z,2.5
2018-05-23T11:03:01.998Z,2.4
2018-05-23T11:06:01.890Z,2.3
2018-05-23T11:09:01.605Z,2.3
2018-05-23T11:12:01.009Z,2.5
2018-05-23T11:15:01.238Z,2.3
2018-05-23T11:18:00.751Z,2.3
2018-05-23T11:21:00.587Z,2.3
2018-05-23T11:24:00.810Z,2.3
2018-05-23T11:27:00.711Z,2.3
2018-05-23T11:30:00.770Z,2.4
2018-05-23T11:33:00.719Z,2.5
2018-05-23T11:36:00.564Z,2.4
2018-05-23T11:39:00.492Z,2.4
2018-05-23T11:42:00.669Z,2.4
2018-05-23T11:45:00.541Z,2.4
2018-05-23T11:48:00.640Z,2.3
2018-05-23T11:51:00.651Z,2.3
2018-05-23T11:54:00.745Z,2.2
2018-05-23T11:57:00.545Z,2.3
2018-05-23T12:00:00.727Z,2.4
2018-05-23T12:03:00.565Z,2.3
2018-05-23T12:06:00.661Z,2.4
2018-05-23T12:09:00.719Z,2.2
2018-05-23T12:12:00.548Z,2.2
2018-05-23T12:15:00.527Z,2.2
2018-05-23T12:18:00.658Z,2.2
2018-05-23T12:21:00.584Z,2.3
2018-05-23T12:24:00.599Z,2.2
2018-05-23T12:27:00.742Z,2.2
2018-05-23T12:30:00.723Z,2.3
2018-05-23T12:33:00.597Z,2.3
2018-05-23T12:36:00.664Z,2.3
2018-05-23T12:39:00.666Z,2.3
2018-05-23T12:42:00.610Z,2.4
2018-05-23T12:45:00.501Z,2.4
2018-05-23T12:48:00.779Z,2.4
2018-05-23T12:51:00.614Z,2.3
2018-05-23T12:54:00.793Z,2.3
2018-05-23T12:57:00.637Z,2.4
2018-05-23T13:00:00.543Z,2.4
2018-05-23T13:03:00.719Z,2.4
2018-05-23T13:06:00.737Z,2.4
2018-05-23T13:09:00.637Z,2.3
2018-05-23T13:12:00.553Z,2.4
2018-05-23T13:15:00.650Z,2.4
2018-05-23T13:18:01.493Z,2.4
2018-05-23T13:21:00.503Z,2.4
2018-05-23T13:24:00.588Z,2.4
2018-05-23T13:27:00.676Z,2.4
2018-05-23T13:30:00.655Z,2.4
2018-05-23T13:33:00.768Z,2.4
2018-05-23T13:36:00.658Z,2.4
2018-05-23T13:39:01.949Z,2.3
2018-05-23T13:42:00.669Z,2.4
2018-05-23T13:45:00.527Z,2.4
2018-05-23T13:48:00.594Z,3.1
2018-05-23T13:51:00.587Z,3.4
2018-05-23T13:54:00.651Z,3.2
2018-05-23T13:57:00.673Z,2.8
2018-05-23T14:00:00.674Z,2.6
2018-05-23T14:03:00.477Z,2.5
2018-05-23T14:06:00.540Z,2.4
2018-05-23T14:09:00.600Z,2.5
2018-05-23T14:12:10.540Z,2.5
2018-05-23T14:15:00.528Z,2.6
2018-05-23T14:18:00.678Z,2.7
2018-05-23T14:21:00.699Z,2.8
2018-05-23T14:24:00.508Z,2.6
2018-05-23T14:27:00.529Z,3.1
2018-05-23T14:30:00.678Z,2.9
2018-05-23T14:33:00.578Z,2.7
2018-05-23T14:36:00.728Z,2.7
2018-05-23T14:39:00.771Z,2.6
2018-05-23T14:42:00.497Z,2.7
2018-05-23T14:45:00.627Z,2.7
2018-05-23T14:48:00.568Z,2.8
2018-05-23T14:51:00.671Z,2.7
2018-05-23T14:54:01.116Z,2.7
2018-05-23T14:57:00.727Z,2.7
2018-05-23T15:00:00.674Z,2.7
2018-05-23T15:03:00.568Z,2.6
2018-05-23T15:06:00.547Z,2.8
2018-05-23T15:09:00.740Z,2.8
2018-05-23T15:12:00.537Z,2.7
2018-05-23T15:15:00.425Z,2.6
2018-05-23T15:18:00.615Z,2.7
2018-05-23T15:21:00.632Z,3.1
2018-05-23T15:24:00.598Z,3
2018-05-23T15:27:00.501Z,2.8
2018-05-23T15:30:00.452Z,2.8
2018-05-23T15:33:00.441Z,2.7
2018-05-23T15:36:00.693Z,2.7
2018-05-23T15:39:00.590Z,2.6
2018-05-23T15:42:00.542Z,2.6
2018-05-23T15:45:00.548Z,2.6
2018-05-23T15:48:00.578Z,2.6
2018-05-23T15:51:01.134Z,2.6
2018-05-23T15:54:00.765Z,2.7
2018-05-23T15:57:02.211Z,2.6
2018-05-23T16:00:00.621Z,2.6
2018-05-23T16:03:01.379Z,2.6
2018-05-23T16:06:00.730Z,2.6
2018-05-23T16:09:00.616Z,2.6
2018-05-23T16:12:00.627Z,2.6
2018-05-23T16:15:00.624Z,2.6
2018-05-23T16:18:00.817Z,2.6
2018-05-23T16:21:00.660Z,2.5
2018-05-23T16:24:00.531Z,2.6
2018-05-23T16:27:00.613Z,2.5
2018-05-23T16:30:00.705Z,2.5
2018-05-23T16:33:00.408Z,2.5
2018-05-23T16:36:00.533Z,2.6
2018-05-23T16:39:00.607Z,2.5
2018-05-23T16:42:00.422Z,2.5
2018-05-23T16:45:00.734Z,2.5
2018-05-23T16:48:00.658Z,2.5
2018-05-23T16:51:00.412Z,2.5
2018-05-23T16:54:00.484Z,2.5
2018-05-23T16:57:00.625Z,2.5
2018-05-23T17:00:01.545Z,2.5
2018-05-23T17:03:00.606Z,2.6
2018-05-23T17:06:00.518Z,2.6
2018-05-23T17:09:00.717Z,2.7
2018-05-23T17:12:00.439Z,2.7
2018-05-23T17:15:00.675Z,2.6
2018-05-23T17:18:00.657Z,2.7
2018-05-23T17:21:00.691Z,2.7
2018-05-23T17:24:00.668Z,2.6
2018-05-23T17:27:05.506Z,2.6
2018-05-23T17:30:00.614Z,2.7
2018-05-23T17:33:00.606Z,2.8
2018-05-23T17:36:00.517Z,2.7
2018-05-23T17:39:00.608Z,2.7
2018-05-23T17:42:00.486Z,2.7
2018-05-23T17:45:00.485Z,2.8
2018-05-23T17:48:00.746Z,2.7
2018-05-23T17:51:00.601Z,2.7
2018-05-23T17:54:00.431Z,2.6
2018-05-23T17:57:01.419Z,2.6
2018-05-23T18:00:00.635Z,2.7
2018-05-23T18:03:00.435Z,2.7
2018-05-23T18:06:02.238Z,4.2
2018-05-23T18:09:00.620Z,3.5
2018-05-23T18:12:00.504Z,3.1
2018-05-23T18:15:00.742Z,2.9
2018-05-23T18:18:00.390Z,3.1
2018-05-23T18:21:00.440Z,3.5
2018-05-23T18:24:00.568Z,3.4
2018-05-23T18:27:00.519Z,3.5
2018-05-23T18:30:00.417Z,3.7
2018-05-23T18:33:00.703Z,3.2
2018-05-23T18:36:00.441Z,3.1
2018-05-23T18:39:00.471Z,2.9
2018-05-23T18:42:00.483Z,2.8
2018-05-23T18:45:00.473Z,2.8
2018-05-23T18:48:00.395Z,3.1
2018-05-23T18:51:00.563Z,3
2018-05-23T18:54:00.594Z,4.2
2018-05-23T18:57:00.641Z,4.5
2018-05-23T19:00:00.605Z,5.7
2018-05-23T19:03:00.516Z,8.7
2018-05-23T19:06:00.481Z,9.3
2018-05-23T19:09:00.450Z,12.3
2018-05-23T19:12:00.546Z,10.1
2018-05-23T19:15:00.413Z,11.7
2018-05-23T19:18:00.431Z,13.5
2018-05-23T19:21:00.517Z,10.6
2018-05-23T19:24:00.483Z,10.5
2018-05-23T19:27:00.547Z,7.8
2018-05-23T19:30:00.480Z,7.8
2018-05-23T19:33:00.476Z,8.1
2018-05-23T19:36:00.593Z,8.1
2018-05-23T19:39:00.542Z,8.2
2018-05-23T19:42:00.486Z,6.8
2018-05-23T19:45:00.398Z,5.7
2018-05-23T19:48:00.689Z,6.8
2018-05-23T19:51:00.442Z,5.9
2018-05-23T19:54:00.636Z,5.6
2018-05-23T19:57:00.412Z,4.7
2018-05-23T20:00:00.807Z,4.8
2018-05-23T20:03:01.085Z,5.3
2018-05-23T20:06:00.600Z,7.1
2018-05-23T20:09:00.400Z,6.3
2018-05-23T20:12:00.620Z,7.2
2018-05-23T20:15:00.487Z,6.8
2018-05-23T20:18:00.429Z,6.2
2018-05-23T20:21:00.385Z,7.6
2018-05-23T20:24:00.499Z,5.8
2018-05-23T20:27:00.413Z,6
2018-05-23T20:30:00.591Z,5.4
2018-05-23T20:33:00.503Z,5.9
2018-05-23T20:36:00.474Z,5.3
2018-05-23T20:39:00.432Z,5.1
2018-05-23T20:42:00.388Z,6.9
2018-05-23T20:45:00.598Z,5.9
2018-05-23T20:48:00.556Z,5.2
2018-05-23T20:51:00.395Z,5.4
2018-05-23T20:54:00.387Z,5.9
2018-05-23T20:57:00.493Z,4.8
2018-05-23T21:00:00.549Z,4.3
2018-05-23T21:03:00.528Z,3.8
2018-05-23T21:06:00.531Z,4.2
2018-05-23T21:09:00.769Z,4.1
2018-05-23T21:12:00.429Z,5.1
2018-05-23T21:15:00.379Z,4.9
2018-05-23T21:18:00.512Z,4.6
2018-05-23T21:21:00.571Z,5.2
2018-05-23T21:24:00.551Z,5.5
2018-05-23T21:27:00.578Z,4.5
2018-05-23T21:30:00.683Z,4.5
2018-05-23T21:33:00.394Z,4.4
2018-05-23T21:36:00.476Z,4.5
2018-05-23T21:39:00.390Z,4.9
2018-05-23T21:42:00.334Z,4.5
2018-05-23T21:45:00.425Z,4
2018-05-23T21:48:00.564Z,3.6
2018-05-23T21:51:00.358Z,3.9
2018-05-23T21:54:00.565Z,3.5
2018-05-23T21:57:01.173Z,3.2
2018-05-23T22:00:01.142Z,3.1
2018-05-23T22:03:01.230Z,3.2
2018-05-23T22:06:01.122Z,3.2
2018-05-23T22:09:01.214Z,3.3
2018-05-23T22:12:01.034Z,3.1
2018-05-23T22:15:01.214Z,3.3
2018-05-23T22:18:01.313Z,3.1
2018-05-23T22:21:02.466Z,3.4
2018-05-23T22:24:00.709Z,3.3
2018-05-23T22:27:00.617Z,3.2
2018-05-23T22:30:00.715Z,3.1
2018-05-23T22:33:01.194Z,3.1
2018-05-23T22:36:02.012Z,3.2
2018-05-23T22:39:00.624Z,3.2
2018-05-23T22:42:00.618Z,3.1
2018-05-23T22:45:00.649Z,3
2018-05-23T22:48:01.127Z,3
2018-05-23T22:51:02.345Z,3.1
2018-05-23T22:54:00.548Z,3
2018-05-23T22:57:00.437Z,3
2018-05-23T23:00:00.335Z,3
2018-05-23T23:03:00.520Z,3
2018-05-23T23:06:00.473Z,3.2
2018-05-23T23:09:00.779Z,3.2
2018-05-23T23:12:00.419Z,3.1
2018-05-23T23:15:00.442Z,3.2
2018-05-23T23:18:00.542Z,3.1
2018-05-23T23:21:00.331Z,3.1
2018-05-23T23:24:00.519Z,3.3
2018-05-23T23:27:00.524Z,3.2
2018-05-23T23:30:00.385Z,3.2
2018-05-23T23:33:00.458Z,3.2
2018-05-23T23:36:00.487Z,3.2
2018-05-23T23:39:00.467Z,3.4
2018-05-23T23:42:00.489Z,3.7
2018-05-23T23:45:00.442Z,3.4
2018-05-23T23:48:00.358Z,3.1
2018-05-23T23:51:00.376Z,3
2018-05-23T23:54:00.683Z,2.9
2018-05-23T23:57:02.266Z,2.9
